Olalla Valley, Washington
Current Conditions -  °F | °C
As of 12:55 AM on Wednesday 26 Nov 2014 (Local Time) from KPWT Reporting Station
Overcast Overcast  
Wind Chill: 55°   Ceiling: 500
Heat Index: 55°   Visibility: 10mi
Dew Point: 55°   Wind: 20mph
Humidity: 100%   Direction: 180°S
Pressure: 30.17"   Gusts: 25mph
Location:  47.4285°N, 122.573°W
Report Text: KPWT 260855Z AUTO 18017G22KT 10SM BKN005 OVC014 13/13 A3017 RMK AO1 60006 57003
Loading
Personal Weather Stations






























Interactive Weather Map New forecast layout! Learn more

10-Day Weather Forecast

Advertisements
Track Severe Weather on mobile